createdAt,value
2018-12-09T00:02:12.564Z,0.40
2018-12-09T00:04:43.447Z,0.30
2018-12-09T00:07:14.240Z,0.40
2018-12-09T00:09:43.347Z,0.43
2018-12-09T00:12:12.367Z,0.30
2018-12-09T00:14:42.058Z,0.47
2018-12-09T00:17:10.941Z,0.40
2018-12-09T00:19:39.879Z,0.40
2018-12-09T00:22:08.923Z,0.30
2018-12-09T00:24:37.858Z,0.30
2018-12-09T00:27:06.690Z,0.53
2018-12-09T00:29:35.590Z,0.40
2018-12-09T00:32:04.620Z,2.17
2018-12-09T00:34:33.622Z,0.30
2018-12-09T00:37:02.470Z,0.40
2018-12-09T00:39:32.000Z,0.33
2018-12-09T00:42:00.935Z,0.30
2018-12-09T00:44:29.969Z,0.40
2018-12-09T00:46:59.775Z,0.30
2018-12-09T00:49:28.650Z,0.30
2018-12-09T00:51:57.558Z,0.30
2018-12-09T00:54:26.671Z,0.30
2018-12-09T00:56:55.531Z,0.30
2018-12-09T00:59:24.365Z,0.40
2018-12-09T01:01:53.291Z,0.33
2018-12-09T01:04:22.173Z,0.40
2018-12-09T01:06:51.254Z,0.30
2018-12-09T01:09:20.197Z,0.30
2018-12-09T01:11:49.058Z,0.30
2018-12-09T01:14:17.999Z,0.33
2018-12-09T01:16:46.890Z,0.30
2018-12-09T01:19:15.734Z,0.30
2018-12-09T01:21:44.563Z,0.30
2018-12-09T01:24:13.410Z,3.97
2018-12-09T01:26:42.324Z,0.70
2018-12-09T01:29:11.214Z,0.30
2018-12-09T01:31:40.062Z,0.40
2018-12-09T01:34:08.952Z,0.70
2018-12-09T01:36:37.784Z,0.50
2018-12-09T01:39:06.867Z,0.50
2018-12-09T01:41:36.586Z,0.30
2018-12-09T01:44:05.570Z,0.40
2018-12-09T01:46:34.462Z,0.30
2018-12-09T01:49:03.362Z,0.30
2018-12-09T01:51:32.256Z,0.47
2018-12-09T01:54:10.014Z,0.60
2018-12-09T01:56:39.651Z,0.30
2018-12-09T01:59:08.589Z,0.40
2018-12-09T02:01:37.492Z,0.80
2018-12-09T02:04:06.518Z,0.30
2018-12-09T02:06:36.025Z,0.40
2018-12-09T02:09:07.448Z,0.40
2018-12-09T02:11:38.085Z,0.30
2018-12-09T02:14:07.229Z,0.50
2018-12-09T02:16:36.603Z,0.53
2018-12-09T02:19:17.823Z,1.50
2018-12-09T02:21:46.979Z,0.70
2018-12-09T02:24:16.436Z,0.70
2018-12-09T02:26:45.415Z,0.60
2018-12-09T02:29:14.439Z,0.37
2018-12-09T02:31:43.332Z,0.30
2018-12-09T02:34:12.384Z,0.40
2018-12-09T02:36:41.352Z,0.40
2018-12-09T02:39:11.362Z,0.47
2018-12-09T02:41:40.290Z,0.60
2018-12-09T02:44:09.197Z,0.40
2018-12-09T02:46:38.262Z,2.50
2018-12-09T02:49:07.140Z,0.40
2018-12-09T02:51:36.114Z,0.70
2018-12-09T02:54:05.013Z,1.90
2018-12-09T02:56:34.021Z,1.10
2018-12-09T02:59:03.203Z,1.00
2018-12-09T03:01:32.138Z,54.93
2018-12-09T03:04:01.073Z,104.37
2018-12-09T03:06:30.017Z,10.67
2018-12-09T03:08:58.853Z,4.00
2018-12-09T03:11:27.757Z,7.03
2018-12-09T03:13:56.657Z,100.40
2018-12-09T03:16:25.652Z,38.40
2018-12-09T03:18:55.187Z,177.80
2018-12-09T03:21:24.017Z,2.20
2018-12-09T03:23:53.018Z,0.33
2018-12-09T03:26:22.040Z,0.40
2018-12-09T03:28:51.017Z,0.40
2018-12-09T03:31:19.934Z,0.40
2018-12-09T03:33:48.906Z,0.40
2018-12-09T03:36:17.992Z,0.40
2018-12-09T03:38:47.404Z,9.63
2018-12-09T03:41:16.426Z,0.30
2018-12-09T03:43:45.356Z,0.37
2018-12-09T03:46:14.378Z,0.30
2018-12-09T03:48:43.378Z,0.40
2018-12-09T03:51:12.414Z,239.80
2018-12-09T03:53:41.469Z,4.03
2018-12-09T03:56:10.473Z,152.00
2018-12-09T03:58:39.588Z,344.73
2018-12-09T04:01:08.561Z,303.10
2018-12-09T04:03:37.961Z,333.10
2018-12-09T04:06:06.862Z,247.90
2018-12-09T04:08:35.945Z,0.40
2018-12-09T04:11:04.860Z,10.73
2018-12-09T04:13:34.849Z,0.40
2018-12-09T04:16:03.923Z,0.70
2018-12-09T04:18:34.875Z,7.63
2018-12-09T04:21:03.884Z,221.93
2018-12-09T04:23:32.812Z,12.43
2018-12-09T04:26:03.599Z,3.43
2018-12-09T04:28:32.512Z,1.70
2018-12-09T04:31:01.476Z,1.27
2018-12-09T04:33:31.511Z,1.43
2018-12-09T04:36:00.479Z,1.47
2018-12-09T04:38:29.320Z,3.00
2018-12-09T04:40:58.312Z,1.27
2018-12-09T04:43:27.283Z,3.17
2018-12-09T04:45:56.249Z,17.90
2018-12-09T04:48:25.255Z,1.47
2018-12-09T04:50:54.134Z,2.83
2018-12-09T04:53:23.131Z,68.90
2018-12-09T04:55:52.250Z,326.50
2018-12-09T04:58:21.226Z,285.23
2018-12-09T05:00:55.329Z,258.93
2018-12-09T05:03:24.214Z,303.10
2018-12-09T05:05:53.211Z,98.00
2018-12-09T05:08:22.122Z,374.20
2018-12-09T05:10:51.122Z,402.07
2018-12-09T05:13:20.263Z,360.37
2018-12-09T05:15:49.327Z,369.57
2018-12-09T05:18:18.238Z,150.13
2018-12-09T05:20:47.546Z,98.40
2018-12-09T05:23:16.480Z,30.70
2018-12-09T05:25:45.338Z,0.90
2018-12-09T05:28:14.182Z,268.30
2018-12-09T05:30:43.038Z,0.73
2018-12-09T05:33:11.924Z,279.20
2018-12-09T05:35:41.028Z,0.60
2018-12-09T05:38:10.004Z,0.83
2018-12-09T05:40:39.648Z,0.60
2018-12-09T05:43:08.566Z,0.60
2018-12-09T05:45:37.527Z,0.90
2018-12-09T05:48:06.380Z,163.73
2018-12-09T05:50:35.321Z,0.50
2018-12-09T05:53:05.307Z,0.50
2018-12-09T05:55:34.512Z,110.97
2018-12-09T05:58:03.419Z,0.50
2018-12-09T06:00:32.402Z,0.60
2018-12-09T06:03:01.379Z,0.53
2018-12-09T06:05:30.304Z,12.73
2018-12-09T06:07:59.255Z,0.60
2018-12-09T06:10:28.104Z,323.97
2018-12-09T06:12:57.025Z,74.47
2018-12-09T06:15:25.987Z,0.50
2018-12-09T06:17:55.216Z,0.70
2018-12-09T06:20:24.134Z,0.90
2018-12-09T06:22:53.214Z,0.57
2018-12-09T06:25:22.143Z,0.40
2018-12-09T06:27:51.036Z,0.63
2018-12-09T06:30:20.080Z,0.90
2018-12-09T06:32:48.938Z,0.93
2018-12-09T06:35:17.837Z,0.60
2018-12-09T06:37:46.769Z,0.40
2018-12-09T06:40:15.889Z,0.40
2018-12-09T06:42:44.830Z,0.40
2018-12-09T06:45:13.844Z,0.50
2018-12-09T06:47:42.853Z,0.50
2018-12-09T06:50:12.198Z,0.70
2018-12-09T06:52:42.135Z,0.50
2018-12-09T06:55:11.045Z,0.70
2018-12-09T06:57:39.987Z,0.50
2018-12-09T07:00:10.031Z,0.87
2018-12-09T07:02:39.225Z,0.90
2018-12-09T07:05:08.755Z,1.03
2018-12-09T07:07:37.846Z,0.57
2018-12-09T07:10:08.998Z,0.60
2018-12-09T07:12:38.308Z,0.50
2018-12-09T07:15:07.421Z,0.50
2018-12-09T07:17:36.398Z,0.50
2018-12-09T07:20:06.693Z,0.50
2018-12-09T07:22:35.779Z,0.70
2018-12-09T07:25:05.087Z,0.50
2018-12-09T07:27:34.427Z,0.50
2018-12-09T07:30:04.095Z,1.63
2018-12-09T07:32:33.080Z,1.13
2018-12-09T07:35:02.003Z,0.60
2018-12-09T07:37:31.452Z,0.50
2018-12-09T07:40:00.383Z,0.40
2018-12-09T07:42:29.323Z,0.57
2018-12-09T07:44:58.454Z,0.50
2018-12-09T07:47:27.440Z,0.60
2018-12-09T07:49:56.298Z,0.50
2018-12-09T07:52:25.734Z,0.50
2018-12-09T07:54:54.633Z,0.57
2018-12-09T07:57:23.598Z,0.60
2018-12-09T07:59:52.478Z,0.70
2018-12-09T08:02:21.362Z,1.40
2018-12-09T08:04:50.214Z,0.90
2018-12-09T08:07:19.128Z,0.90
2018-12-09T08:09:47.994Z,0.77
2018-12-09T08:12:16.890Z,1.00
2018-12-09T08:14:45.723Z,1.50
2018-12-09T08:17:14.562Z,1.00
2018-12-09T08:19:43.479Z,0.80
2018-12-09T08:22:12.376Z,0.93
2018-12-09T08:24:41.323Z,0.60
2018-12-09T08:27:10.761Z,0.77
2018-12-09T08:29:39.635Z,0.70
2018-12-09T08:32:08.612Z,0.65
2018-12-09T08:34:37.499Z,0.90
2018-12-09T08:37:06.455Z,0.60
2018-12-09T08:39:35.253Z,0.67
2018-12-09T08:42:04.324Z,0.80
2018-12-09T08:44:34.318Z,1.00
2018-12-09T08:47:09.948Z,0.60
2018-12-09T08:49:38.802Z,0.70
2018-12-09T08:52:07.647Z,0.80
2018-12-09T08:54:36.523Z,0.73
2018-12-09T08:57:05.434Z,0.50
2018-12-09T08:59:34.370Z,0.60
2018-12-09T09:02:03.258Z,0.90
2018-12-09T09:04:32.357Z,1.07
2018-12-09T09:07:01.316Z,0.70
2018-12-09T09:09:30.172Z,1.03
2018-12-09T09:11:59.083Z,1.27
2018-12-09T09:14:27.923Z,1.00
2018-12-09T09:16:56.785Z,1.30
2018-12-09T09:19:25.642Z,1.13
2018-12-09T09:21:54.519Z,2.58
2018-12-09T09:24:23.435Z,1.27
2018-12-09T09:26:52.279Z,1.27
2018-12-09T09:29:21.181Z,1.17
2018-12-09T09:31:50.069Z,1.43
2018-12-09T09:34:18.932Z,0.73
2018-12-09T09:36:47.836Z,1.40
2018-12-09T09:39:16.682Z,1.70
2018-12-09T09:41:45.655Z,1.30
2018-12-09T09:44:14.542Z,0.77
2018-12-09T09:46:43.484Z,0.78
2018-12-09T09:49:12.327Z,0.70
2018-12-09T09:51:41.443Z,0.60
2018-12-09T09:54:10.307Z,0.77
2018-12-09T09:56:39.176Z,0.70
2018-12-09T09:59:08.054Z,0.50
2018-12-09T10:01:36.931Z,1.00
2018-12-09T10:04:05.867Z,0.70
2018-12-09T10:06:34.859Z,0.63
2018-12-09T10:09:06.045Z,0.40
2018-12-09T10:11:35.484Z,0.90
2018-12-09T10:14:04.475Z,0.70
2018-12-09T10:16:33.613Z,0.87
2018-12-09T10:19:02.476Z,0.40
2018-12-09T10:21:31.384Z,0.60
2018-12-09T10:24:00.254Z,0.63
2018-12-09T10:26:36.268Z,0.50
2018-12-09T10:29:00.742Z,0.70
2018-12-09T10:31:29.691Z,0.40
2018-12-09T10:33:58.539Z,0.70
2018-12-09T10:36:27.602Z,0.70
2018-12-09T10:38:56.487Z,0.70
2018-12-09T10:41:25.338Z,0.53
2018-12-09T10:43:54.291Z,0.50
2018-12-09T10:46:23.327Z,0.70
2018-12-09T10:48:52.379Z,0.80
2018-12-09T10:51:21.354Z,0.53
2018-12-09T10:53:50.190Z,1.00
2018-12-09T10:56:19.625Z,1.10
2018-12-09T10:58:49.303Z,0.80
2018-12-09T11:01:24.222Z,0.77
2018-12-09T11:03:54.065Z,1.00
2018-12-09T11:06:24.756Z,1.20
2018-12-09T11:08:53.785Z,1.07
2018-12-09T11:11:22.824Z,0.90
2018-12-09T11:13:58.109Z,0.93
2018-12-09T11:16:24.338Z,0.67
2018-12-09T11:18:53.827Z,1.20
2018-12-09T11:21:30.344Z,1.30
2018-12-09T11:23:54.181Z,1.10
2018-12-09T11:26:23.524Z,1.30
2018-12-09T11:28:52.483Z,1.77
2018-12-09T11:31:22.627Z,2.20
2018-12-09T11:33:52.390Z,1.33
2018-12-09T11:36:21.735Z,1.30
2018-12-09T11:38:51.013Z,1.43
2018-12-09T11:41:20.019Z,1.47
2018-12-09T11:43:48.987Z,1.20
2018-12-09T11:46:18.767Z,1.22
2018-12-09T11:48:48.265Z,1.00
2018-12-09T11:51:17.315Z,1.53
2018-12-09T11:53:47.463Z,1.20
2018-12-09T11:56:17.005Z,1.13
2018-12-09T11:58:46.670Z,1.13
2018-12-09T12:01:15.711Z,0.90
2018-12-09T12:03:44.991Z,1.93
2018-12-09T12:06:14.322Z,1.17
2018-12-09T12:08:43.601Z,1.67
2018-12-09T12:11:12.766Z,0.80
2018-12-09T12:13:42.079Z,1.43
2018-12-09T12:16:11.482Z,1.10
2018-12-09T12:18:40.717Z,0.90
2018-12-09T12:21:10.219Z,1.00
2018-12-09T12:23:39.175Z,0.97
2018-12-09T12:26:09.361Z,0.80
2018-12-09T12:28:38.641Z,0.83
2018-12-09T12:31:07.899Z,1.30
2018-12-09T12:33:36.721Z,0.60
2018-12-09T12:36:05.690Z,0.80
2018-12-09T12:38:34.547Z,0.80
2018-12-09T12:41:03.459Z,0.70
2018-12-09T12:43:32.476Z,0.60
2018-12-09T12:46:01.398Z,0.70
2018-12-09T12:48:30.468Z,0.60
2018-12-09T12:50:59.449Z,0.60
2018-12-09T12:53:28.366Z,0.70
2018-12-09T12:55:57.382Z,0.67
2018-12-09T12:58:26.298Z,0.70
2018-12-09T13:00:55.200Z,0.50
2018-12-09T13:03:25.280Z,0.60
2018-12-09T13:05:54.297Z,0.70
2018-12-09T13:08:24.631Z,0.70
2018-12-09T13:10:53.487Z,0.60
2018-12-09T13:13:22.421Z,1.03
2018-12-09T13:15:51.665Z,0.97
2018-12-09T13:18:20.611Z,0.80
2018-12-09T13:20:49.443Z,420.70
2018-12-09T13:23:18.379Z,360.30
2018-12-09T13:25:48.249Z,409.87
2018-12-09T13:28:17.142Z,360.70
2018-12-09T13:30:46.103Z,0.50
2018-12-09T13:33:15.127Z,0.50
2018-12-09T13:35:44.018Z,0.60
2018-12-09T13:38:13.012Z,0.50
2018-12-09T13:40:41.927Z,1.10
2018-12-09T13:43:11.431Z,1.53
2018-12-09T13:45:40.979Z,0.87
2018-12-09T13:48:10.415Z,0.93
2018-12-09T13:50:39.436Z,0.67
2018-12-09T13:53:08.326Z,1.27
2018-12-09T13:55:37.334Z,1.77
2018-12-09T13:58:06.518Z,1.37
2018-12-09T14:00:35.744Z,1.30
2018-12-09T14:03:04.674Z,0.73
2018-12-09T14:05:33.532Z,0.80
2018-12-09T14:08:02.487Z,0.80
2018-12-09T14:10:31.665Z,1.60
2018-12-09T14:13:00.576Z,1.03
2018-12-09T14:15:29.531Z,1.20
2018-12-09T14:17:58.454Z,1.27
2018-12-09T14:20:27.459Z,0.97
2018-12-09T14:22:56.423Z,1.00
2018-12-09T14:25:25.267Z,0.97
2018-12-09T14:27:54.194Z,1.00
2018-12-09T14:30:23.218Z,1.17
2018-12-09T14:32:52.059Z,0.90
2018-12-09T14:35:20.975Z,1.20
2018-12-09T14:37:49.835Z,0.98
2018-12-09T14:40:18.771Z,1.40
2018-12-09T14:42:47.709Z,1.10
2018-12-09T14:45:16.539Z,1.73
2018-12-09T14:47:45.421Z,1.70
2018-12-09T14:50:14.342Z,1.00
2018-12-09T14:52:43.222Z,1.50
2018-12-09T14:55:12.142Z,1.80
2018-12-09T14:57:41.083Z,1.47
2018-12-09T15:00:11.395Z,1.03
2018-12-09T15:02:40.402Z,1.10
2018-12-09T15:05:09.324Z,1.00
2018-12-09T15:07:38.236Z,1.17
2018-12-09T15:10:08.898Z,1.30
2018-12-09T15:12:38.192Z,0.90
2018-12-09T15:15:07.672Z,1.10
2018-12-09T15:17:38.075Z,0.70
2018-12-09T15:20:07.010Z,0.97
2018-12-09T15:22:36.059Z,0.90
2018-12-09T15:25:07.080Z,1.13
2018-12-09T15:27:36.835Z,1.70
2018-12-09T15:30:07.127Z,1.50
2018-12-09T15:32:36.174Z,1.30
2018-12-09T15:35:05.511Z,1.20
2018-12-09T15:37:34.495Z,1.07
2018-12-09T15:40:03.511Z,1.00
2018-12-09T15:42:32.553Z,1.03
2018-12-09T15:45:01.431Z,0.90
2018-12-09T15:47:30.480Z,0.60
2018-12-09T15:49:59.451Z,0.83
2018-12-09T15:52:28.479Z,1.00
2018-12-09T15:54:57.334Z,1.10
2018-12-09T15:57:27.246Z,0.60
2018-12-09T15:59:56.151Z,0.73
2018-12-09T16:02:25.031Z,1.10
2018-12-09T16:04:53.931Z,1.10
2018-12-09T16:07:22.818Z,1.00
2018-12-09T16:09:51.654Z,1.40
2018-12-09T16:12:20.496Z,1.30
2018-12-09T16:14:49.402Z,1.00
2018-12-09T16:17:18.280Z,0.90
2018-12-09T16:19:47.815Z,0.83
2018-12-09T16:22:17.013Z,1.10
2018-12-09T16:24:45.886Z,1.77
2018-12-09T16:27:14.839Z,1.20
2018-12-09T16:29:43.799Z,0.80
2018-12-09T16:32:12.672Z,1.10
2018-12-09T16:34:41.497Z,0.97
2018-12-09T16:37:10.476Z,1.10
2018-12-09T16:39:39.822Z,1.27
2018-12-09T16:42:08.723Z,1.20
2018-12-09T16:44:37.675Z,1.60
2018-12-09T16:47:06.525Z,1.43
2018-12-09T16:49:35.432Z,1.37
2018-12-09T16:52:04.324Z,1.10
2018-12-09T16:54:33.282Z,0.87
2018-12-09T16:57:02.103Z,0.73
2018-12-09T16:59:31.114Z,1.00
2018-12-09T17:02:00.152Z,0.97
2018-12-09T17:04:30.522Z,1.03
2018-12-09T17:06:59.604Z,1.20
2018-12-09T17:09:28.857Z,1.00
2018-12-09T17:11:58.106Z,0.60
2018-12-09T17:14:27.740Z,0.60
2018-12-09T17:16:57.356Z,0.90
2018-12-09T17:19:26.562Z,0.97
2018-12-09T17:21:55.768Z,0.80
2018-12-09T17:24:25.854Z,0.80
2018-12-09T17:26:55.195Z,0.80
2018-12-09T17:29:24.523Z,0.80
2018-12-09T17:31:53.980Z,0.80
2018-12-09T17:34:23.233Z,0.73
2018-12-09T17:36:52.314Z,1.33
2018-12-09T17:39:21.434Z,1.10
2018-12-09T17:41:50.676Z,1.40
2018-12-09T17:44:19.726Z,0.87
2018-12-09T17:46:48.955Z,1.00
2018-12-09T17:49:18.171Z,1.30
2018-12-09T17:51:47.347Z,1.40
2018-12-09T17:54:16.591Z,1.20
2018-12-09T17:56:45.763Z,1.40
2018-12-09T17:59:14.943Z,1.37
2018-12-09T18:01:44.045Z,1.37
2018-12-09T18:04:13.289Z,2.17
2018-12-09T18:06:42.415Z,1.73
2018-12-09T18:09:11.579Z,1.33
2018-12-09T18:11:40.765Z,1.77
2018-12-09T18:14:11.191Z,2.27
2018-12-09T18:16:40.410Z,2.13
2018-12-09T18:19:09.500Z,1.77
2018-12-09T18:21:38.764Z,1.77
2018-12-09T18:24:08.022Z,3.00
2018-12-09T18:26:37.160Z,2.30
2018-12-09T18:29:06.291Z,1.93
2018-12-09T18:31:35.700Z,2.20
2018-12-09T18:34:04.919Z,2.23
2018-12-09T19:09:31.674Z,1.30
2018-12-09T19:12:03.458Z,1.30
2018-12-09T19:14:32.379Z,1.50
2018-12-09T19:17:01.375Z,1.27
2018-12-09T19:19:30.307Z,1.60
2018-12-09T19:21:59.244Z,1.53
2018-12-09T19:24:28.243Z,1.67
2018-12-09T19:26:57.103Z,1.60
2018-12-09T19:29:26.106Z,1.30
2018-12-09T19:31:55.059Z,1.10
2018-12-09T19:34:24.080Z,1.10
2018-12-09T19:36:52.994Z,1.20
2018-12-09T19:39:22.014Z,1.30
2018-12-09T19:41:50.980Z,1.23
2018-12-09T19:44:19.960Z,1.10
2018-12-09T19:46:49.172Z,1.00
2018-12-09T19:49:18.370Z,1.07
2018-12-09T19:51:48.408Z,1.10
2018-12-09T19:54:17.478Z,0.90
2018-12-09T19:56:47.502Z,1.20
2018-12-09T19:59:16.475Z,0.90
2018-12-09T20:01:45.395Z,1.20
2018-12-09T20:04:14.394Z,0.80
2018-12-09T20:06:43.367Z,1.10
2018-12-09T20:09:12.414Z,0.70
2018-12-09T20:11:41.439Z,0.87
2018-12-09T20:14:10.353Z,1.20
2018-12-09T20:16:39.471Z,1.10
2018-12-09T20:19:08.859Z,1.10
2018-12-09T20:21:37.807Z,1.30
2018-12-09T20:24:06.714Z,1.30
2018-12-09T20:26:35.718Z,1.00
2018-12-09T20:29:04.899Z,1.20
2018-12-09T20:31:34.060Z,1.23
2018-12-09T20:34:03.245Z,1.33
2018-12-09T20:36:32.480Z,1.03
2018-12-09T20:39:01.890Z,1.07
2018-12-09T20:41:33.614Z,0.90
2018-12-09T20:44:02.812Z,1.10
2018-12-09T20:46:32.936Z,1.00
2018-12-09T20:49:02.200Z,0.87
2018-12-09T20:51:31.242Z,1.07
2018-12-09T20:54:00.359Z,1.00
2018-12-09T20:56:29.336Z,1.33
2018-12-09T20:58:58.365Z,0.97
2018-12-09T21:01:27.416Z,1.73
2018-12-09T21:03:56.262Z,1.53
2018-12-09T21:06:25.267Z,1.60
2018-12-09T21:08:55.539Z,1.80
2018-12-09T21:11:24.572Z,1.40
2018-12-09T21:13:53.459Z,1.20
2018-12-09T21:16:22.293Z,1.37
2018-12-09T21:18:52.466Z,1.47
2018-12-09T21:21:21.367Z,1.40
2018-12-09T21:23:50.254Z,1.40
2018-12-09T21:26:20.685Z,1.17
2018-12-09T21:28:50.578Z,1.10
2018-12-09T21:31:20.174Z,1.70
2018-12-09T21:33:49.510Z,1.70
2018-12-09T21:36:19.194Z,1.70
2018-12-09T21:38:48.350Z,1.20
2018-12-09T21:41:18.000Z,0.70
2018-12-09T21:43:47.052Z,1.37
2018-12-09T21:46:16.776Z,1.17
2018-12-09T21:48:46.294Z,1.27
2018-12-09T21:51:16.590Z,1.30
2018-12-09T21:53:46.022Z,1.17
2018-12-09T21:56:15.930Z,0.93
2018-12-09T21:58:47.534Z,1.50
2018-12-09T22:01:17.166Z,1.27
2018-12-09T22:03:46.717Z,0.87
2018-12-09T22:06:15.820Z,0.70
2018-12-09T22:08:44.712Z,1.13
2018-12-09T22:11:13.656Z,1.43
2018-12-09T22:13:42.602Z,1.10
2018-12-09T22:16:11.569Z,1.03
2018-12-09T22:18:40.474Z,1.47
2018-12-09T22:21:09.344Z,1.27
2018-12-09T22:23:38.247Z,1.47
2018-12-09T22:26:07.246Z,1.20
2018-12-09T22:28:36.147Z,1.47
2018-12-09T22:31:05.103Z,1.50
2018-12-09T22:33:34.007Z,1.40
2018-12-09T22:36:02.924Z,1.03
2018-12-09T22:38:31.841Z,1.50
2018-12-09T22:41:00.717Z,1.43
2018-12-09T22:43:29.694Z,0.97
2018-12-09T22:45:58.568Z,1.20
2018-12-09T22:48:27.946Z,1.27
2018-12-09T22:50:57.088Z,1.40
2018-12-09T22:53:26.071Z,1.67
2018-12-09T22:55:55.125Z,1.73
2018-12-09T22:58:24.047Z,1.60
2018-12-09T23:00:58.467Z,1.60
2018-12-09T23:03:29.617Z,1.47
2018-12-09T23:05:59.673Z,1.37
2018-12-09T23:08:28.523Z,1.30
2018-12-09T23:10:57.449Z,1.60
2018-12-09T23:13:26.287Z,1.37
2018-12-09T23:15:55.178Z,1.73
2018-12-09T23:18:24.487Z,1.10
2018-12-09T23:20:53.437Z,1.40
2018-12-09T23:23:22.576Z,1.07
2018-12-09T23:25:51.486Z,1.87
2018-12-09T23:28:20.385Z,1.50
2018-12-09T23:30:49.394Z,1.80
2018-12-09T23:33:19.362Z,2.30
2018-12-09T23:35:48.211Z,2.23
2018-12-09T23:38:17.155Z,1.80
2018-12-09T23:40:46.025Z,1.63
2018-12-09T23:43:14.939Z,1.30
2018-12-09T23:45:43.823Z,1.73
2018-12-09T23:48:12.808Z,1.10
2018-12-09T23:50:41.658Z,1.67
2018-12-09T23:53:10.569Z,1.63
2018-12-09T23:55:39.603Z,1.70
2018-12-09T23:58:08.562Z,2.00
